Time;durP1;ratioP1;P1;durP2;ratioP2;P2;SDS_P1;SDS_P2;PMS_P1;PMS_P2;Temp;Humidity;BMP_temperature;BMP_pressure;BME280_temperature;BME280_humidity;BME280_pressure;Samples;Min_cycle;Max_cycle;Signal;HPM_P1;HPM_P2
2022/03/21 00:01:56;;;;;;;;;66.75;46.75;;;;;9.65;56.77;102491.28;5043479;28;45557;-71
2022/03/21 00:04:22;;;;;;;;;61.75;47.25;;;;;9.64;56.67;102482.56;5046231;28;47050;-71
2022/03/21 00:06:47;;;;;;;;;61.25;48.75;;;;;9.64;56.78;102487.81;5044601;28;45495;-71
2022/03/21 00:09:12;;;;;;;;;65.00;48.50;;;;;9.64;56.89;102493.06;5052316;28;45325;-71
2022/03/21 00:11:38;;;;;;;;;61.33;46.00;;;;;9.62;57.29;102489.59;5038972;28;49166;-71
2022/03/21 00:14:04;;;;;;;;;57.50;44.75;;;;;9.60;57.03;102485.22;5051764;28;46224;-71
2022/03/21 00:16:30;;;;;;;;;61.75;45.25;;;;;9.60;56.78;102493.09;5045209;28;46040;-71
2022/03/21 00:18:55;;;;;;;;;55.00;43.25;;;;;9.55;57.27;102487.94;5050822;28;45388;-71
2022/03/21 00:21:21;;;;;;;;;60.00;45.25;;;;;9.56;57.33;102494.03;5043007;28;45412;-71
2022/03/21 00:23:47;;;;;;;;;61.00;45.33;;;;;9.56;57.31;102494.03;5040644;28;68969;-71
2022/03/21 00:26:12;;;;;;;;;66.00;48.00;;;;;9.55;57.44;102493.19;5043632;28;45878;-71
2022/03/21 00:28:38;;;;;;;;;69.00;50.00;;;;;9.54;57.43;102494.03;5041079;28;45423;-71
2022/03/21 00:31:03;;;;;;;;;55.75;43.25;;;;;9.52;57.57;102490.56;5046019;28;46861;-72
2022/03/21 00:33:28;;;;;;;;;59.75;46.75;;;;;9.51;57.69;102486.22;5044774;28;46348;-72
2022/03/21 00:35:54;;;;;;;;;61.33;46.67;;;;;9.49;57.50;102495.84;5046364;28;45531;-72
2022/03/21 00:38:21;;;;;;;;;64.00;47.00;;;;;9.48;57.82;102498.47;5041989;28;45599;-72
2022/03/21 00:40:47;;;;;;;;;67.00;47.00;;;;;9.45;57.44;102491.53;5065148;28;45447;-72
2022/03/21 00:43:19;;;;;;;;;60.50;46.25;;;;;9.43;57.57;102493.28;5052276;28;46152;-71
2022/03/21 00:45:46;;;;;;;;;66.25;49.00;;;;;9.41;58.14;102490.69;5051310;28;46036;-72
2022/03/21 00:48:12;;;;;;;;;62.50;45.50;;;;;9.39;57.97;102488.94;5046797;28;45543;-72
2022/03/21 00:50:37;;;;;;;;;59.25;47.00;;;;;9.37;57.95;102488.97;5043450;28;45231;-72
2022/03/21 00:53:02;;;;;;;;;65.75;49.00;;;;;9.36;58.33;102486.38;5049267;28;46178;-72
2022/03/21 00:55:31;;;;;;;;;63.50;46.25;;;;;9.35;58.44;102484.63;5053613;28;45577;-72
2022/03/21 00:57:58;;;;;;;;;58.25;46.50;;;;;9.33;58.73;102483.75;5056659;28;46632;-72
2022/03/21 01:00:29;;;;;;;;;62.25;45.00;;;;;9.32;58.59;102492.53;5056398;28;45295;-71
2022/03/21 01:02:57;;;;;;;;;64.75;48.50;;;;;9.31;58.34;102482.91;5047426;28;46181;-71
2022/03/21 01:05:23;;;;;;;;;62.00;45.75;;;;;9.31;58.65;102483.78;5048324;28;45489;-72
2022/03/21 01:07:50;;;;;;;;;62.75;45.00;;;;;9.35;59.02;102492.50;5045783;28;45691;-72
2022/03/21 01:10:18;;;;;;;;;61.00;46.00;;;;;9.38;58.64;102490.69;5048957;28;45451;-72
2022/03/21 01:12:44;;;;;;;;;61.00;46.50;;;;;9.41;59.13;102487.19;5045944;28;45525;-72
2022/03/21 01:15:14;;;;;;;;;55.25;43.00;;;;;9.44;59.16;102487.13;5043283;28;46266;-72
2022/03/21 01:17:40;;;;;;;;;61.00;48.00;;;;;9.49;59.23;102493.22;5047395;28;45436;-72
2022/03/21 01:20:05;;;;;;;;;62.75;46.00;;;;;9.52;58.66;102498.44;5051521;28;45257;-72
2022/03/21 01:22:31;;;;;;;;;64.00;46.75;;;;;9.56;58.69;102494.91;5049002;28;46411;-72
2022/03/21 01:24:56;;;;;;;;;65.75;49.00;;;;;9.60;59.00;102493.97;5052408;28;45428;-72
2022/03/21 01:27:22;;;;;;;;;64.75;46.50;;;;;9.64;58.65;102493.06;5044896;28;45208;-72
2022/03/21 01:29:48;;;;;;;;;68.25;46.50;;;;;9.66;58.73;102490.44;5042958;28;45385;-72
2022/03/21 01:32:13;;;;;;;;;64.00;46.75;;;;;9.70;58.96;102488.63;5053567;28;46047;-72
2022/03/21 01:34:38;;;;;;;;;64.00;48.75;;;;;9.73;58.76;102491.22;5050342;28;45611;-72
2022/03/21 01:37:04;;;;;;;;;69.00;50.25;;;;;9.76;59.19;102485.91;5048988;28;45558;-72
2022/03/21 01:39:29;;;;;;;;;64.00;47.50;;;;;9.79;58.47;102488.53;5046726;28;45489;-72
2022/03/21 01:41:54;;;;;;;;;58.25;46.00;;;;;9.79;58.46;102489.38;5048472;28;47871;-72
2022/03/21 01:44:21;;;;;;;;;63.50;47.00;;;;;9.78;58.47;102489.41;5055814;28;45420;-72
2022/03/21 01:46:46;;;;;;;;;64.00;48.25;;;;;9.78;59.00;102486.78;5048858;28;47891;-72
2022/03/21 01:49:13;;;;;;;;;59.75;42.75;;;;;9.77;58.39;102485.91;5045198;28;45389;-72
2022/03/21 01:51:40;;;;;;;;;62.25;47.25;;;;;9.78;58.82;102484.16;5048638;28;46518;-72
2022/03/21 01:56:51;;;;;;;;;61.00;46.25;;;;;9.77;58.59;102477.19;5041356;28;45514;-72
2022/03/21 01:59:17;;;;;;;;;61.50;48.75;;;;;9.73;59.08;102492.09;5054631;28;45315;-72
2022/03/21 02:01:43;;;;;;;;;62.75;47.00;;;;;9.67;58.91;102487.78;5052954;28;46463;-72
2022/03/21 02:04:09;;;;;;;;;66.25;47.00;;;;;9.65;59.57;102489.53;5053499;28;45540;-72
2022/03/21 02:06:35;;;;;;;;;60.50;48.00;;;;;9.64;59.35;102490.44;5048893;28;45514;-72
2022/03/21 02:09:03;;;;;;;;;67.75;49.75;;;;;9.65;59.45;102499.16;5049389;28;45337;-72
2022/03/21 02:11:30;;;;;;;;;61.50;45.50;;;;;9.64;59.60;102485.19;5047376;28;45486;-72
2022/03/21 02:13:58;;;;;;;;;63.00;49.00;;;;;9.62;59.94;102481.72;5056282;28;45290;-72
2022/03/21 02:16:26;;;;;;;;;61.50;46.75;;;;;9.64;59.51;102486.94;5045471;28;45907;-72
2022/03/21 02:18:52;;;;;;;;;69.00;47.25;;;;;9.65;59.62;102483.41;5044057;28;45494;-72
2022/03/21 02:21:43;;;;;;;;;24.25;14.25;;;;;9.63;59.74;102480.81;5049505;28;46063;-72
2022/03/21 02:24:49;;;;;;;;;58.75;45.75;;;;;9.65;60.10;102479.03;5049302;28;45503;-72
2022/03/21 02:27:17;;;;;;;;;62.00;48.50;;;;;9.66;60.19;102477.31;5038559;28;45620;-72
2022/03/21 02:29:43;;;;;;;;;66.50;47.25;;;;;9.66;60.29;102480.81;5040795;28;45406;-72
2022/03/21 02:32:09;;;;;;;;;65.75;47.75;;;;;9.66;59.69;102480.81;5052078;28;46202;-72
2022/03/21 02:34:37;;;;;;;;;55.50;44.25;;;;;9.69;59.88;102474.63;5047235;28;45479;-72
2022/03/21 02:37:04;;;;;;;;;65.25;47.25;;;;;9.68;60.13;102473.75;5046091;28;45384;-72
2022/03/21 02:39:30;;;;;;;;;62.75;46.00;;;;;9.70;59.93;102465.00;5050485;28;45340;-71
2022/03/21 02:41:56;;;;;;;;;57.75;42.75;;;;;9.71;60.28;102471.97;5053448;28;46113;-72
2022/03/21 02:44:22;;;;;;;;;60.50;44.00;;;;;9.72;59.84;102468.50;5040025;28;45666;-72
2022/03/21 02:46:48;;;;;;;;;64.00;45.50;;;;;9.72;60.32;102463.25;5046394;28;45826;-72
2022/03/21 02:49:15;;;;;;;;;62.50;43.25;;;;;9.75;60.30;102465.81;5052532;28;45546;-72
2022/03/21 02:51:41;;;;;;;;;66.75;46.75;;;;;9.76;59.76;102460.56;5044077;28;45669;-72
2022/03/21 02:54:07;;;;;;;;;59.75;43.50;;;;;9.78;59.96;102460.53;5053436;28;45429;-72
2022/03/21 02:56:33;;;;;;;;;67.75;48.25;;;;;9.77;59.79;102459.66;5047256;28;45765;-72
2022/03/21 02:58:59;;;;;;;;;60.75;44.00;;;;;9.76;60.02;102457.94;5045828;28;45508;-72
2022/03/21 03:01:25;;;;;;;;;53.75;44.00;;;;;9.74;60.35;102457.06;5048664;28;45543;-72
2022/03/21 03:03:51;;;;;;;;;65.00;50.50;;;;;9.75;60.49;102465.81;5048128;28;45869;-72
2022/03/21 03:06:17;;;;;;;;;58.00;45.25;;;;;9.75;60.55;102468.44;5044733;28;45506;-72
2022/03/21 03:08:43;;;;;;;;;60.50;44.50;;;;;9.75;60.27;102465.81;5050482;28;46662;-72
2022/03/21 03:11:10;;;;;;;;;59.25;45.25;;;;;9.74;60.42;102462.31;5039323;28;46427;-72
2022/03/21 03:13:35;;;;;;;;;64.00;48.00;;;;;9.75;60.27;102468.44;5045035;28;46298;-72
2022/03/21 03:16:01;;;;;;;;;61.75;47.00;;;;;9.73;60.60;102467.59;5051209;28;45744;-72
2022/03/21 03:18:26;;;;;;;;;61.25;46.00;;;;;9.72;60.79;102471.13;5043615;28;45510;-72
2022/03/21 03:20:54;;;;;;;;;59.75;47.00;;;;;9.71;60.83;102471.97;5044738;28;46039;-72
2022/03/21 03:23:23;;;;;;;;;63.25;46.00;;;;;9.71;60.48;102466.72;5049734;28;45341;-72
2022/03/21 03:25:56;;;;;;;;;65.00;48.50;;;;;9.71;61.05;102469.34;5044789;28;45541;-72
2022/03/21 03:28:21;;;;;;;;;58.50;46.00;;;;;9.71;61.20;102475.50;5045627;28;45318;-72
2022/03/21 03:30:46;;;;;;;;;61.00;45.50;;;;;9.73;61.05;102471.09;5047373;28;48963;-72
2022/03/21 03:33:12;;;;;;;;;60.25;46.00;;;;;9.73;61.25;102470.22;5054360;28;45567;-72
2022/03/21 03:35:37;;;;;;;;;64.25;47.25;;;;;9.74;60.93;102472.81;5040034;28;45790;-72
2022/03/21 03:38:03;;;;;;;;;60.00;46.00;;;;;9.74;61.14;102466.69;5042761;28;45349;-72
2022/03/21 03:40:29;;;;;;;;;53.75;43.25;;;;;9.75;60.90;102463.19;5041981;28;45585;-72
2022/03/21 03:42:54;;;;;;;;;65.00;45.25;;;;;9.76;61.32;102467.53;5048420;28;45430;-72
2022/03/21 03:45:20;;;;;;;;;63.25;46.00;;;;;9.76;61.43;102478.03;5052149;28;45560;-72
2022/03/21 03:47:45;;;;;;;;;59.50;43.00;;;;;9.75;61.11;102476.31;5054411;28;45331;-72
2022/03/21 03:50:11;;;;;;;;;60.50;45.25;;;;;9.75;61.38;102479.81;5048793;28;45601;-72
2022/03/21 03:52:37;;;;;;;;;58.75;44.25;;;;;9.77;61.22;102485.06;5042762;28;45436;-72
2022/03/21 03:55:03;;;;;;;;;59.00;46.75;;;;;9.78;61.56;102482.41;5048552;28;45497;-72
2022/03/21 03:57:29;;;;;;;;;60.75;47.75;;;;;9.79;61.43;102486.75;5053083;28;45519;-72
2022/03/21 03:59:54;;;;;;;;;59.25;46.75;;;;;9.80;61.21;102483.25;5039878;28;46165;-72
2022/03/21 04:02:20;;;;;;;;;59.50;44.00;;;;;9.81;61.65;102484.09;5054654;28;45353;-72
2022/03/21 04:04:45;;;;;;;;;58.00;43.50;;;;;9.83;61.28;102487.59;5045353;28;45832;-72
2022/03/21 04:07:10;;;;;;;;;54.33;46.33;;;;;9.84;61.34;102484.09;5047956;28;50073;-72
2022/03/21 04:09:35;;;;;;;;;58.00;45.00;;;;;9.86;61.44;102483.16;5043675;28;46056;-72
2022/03/21 04:12:02;;;;;;;;;55.50;42.25;;;;;9.85;61.53;102481.44;5045445;28;45816;-72
2022/03/21 04:14:28;;;;;;;;;54.75;42.50;;;;;9.85;61.40;102486.69;5040452;28;45516;-72
2022/03/21 04:16:53;;;;;;;;;58.00;44.50;;;;;9.85;61.80;102486.69;5040935;28;46712;-72
2022/03/21 04:19:18;;;;;;;;;59.00;44.00;;;;;9.86;61.29;102495.44;5051469;28;46061;-72
2022/03/21 04:21:44;;;;;;;;;59.00;45.75;;;;;9.85;61.34;102498.94;5048188;28;45408;-72
2022/03/21 04:24:09;;;;;;;;;54.75;43.50;;;;;9.84;61.71;102498.09;5043234;28;45416;-72
2022/03/21 04:26:34;;;;;;;;;56.67;43.67;;;;;9.85;61.62;102502.44;5050904;28;45567;-72
2022/03/21 04:29:02;;;;;;;;;60.50;45.00;;;;;9.84;61.92;102502.47;5053356;28;46065;-72
2022/03/21 04:31:28;;;;;;;;;65.00;48.75;;;;;9.85;61.65;102498.94;5042767;28;45512;-72
2022/03/21 04:33:53;;;;;;;;;65.50;46.00;;;;;9.86;61.68;102508.56;5043990;28;45758;-72
2022/03/21 04:36:19;;;;;;;;;62.00;47.00;;;;;9.85;61.78;102512.06;5040195;28;45294;-72
2022/03/21 04:38:45;;;;;;;;;63.50;47.25;;;;;9.84;61.66;102513.84;5049762;28;47198;-72
2022/03/21 04:41:10;;;;;;;;;57.50;45.50;;;;;9.84;62.26;102520.84;5049053;28;45380;-72
2022/03/21 04:43:35;;;;;;;;;57.33;44.00;;;;;9.85;62.27;102512.06;5042942;28;47904;-72
2022/03/21 04:46:01;;;;;;;;;59.00;42.00;;;;;9.87;61.84;102524.31;5043078;28;45506;-72
2022/03/21 04:48:26;;;;;;;;;60.00;44.50;;;;;9.90;62.49;102512.91;5046380;28;46181;-72
2022/03/21 04:50:51;;;;;;;;;56.00;41.75;;;;;9.93;62.32;102529.50;5043223;28;45544;-72
2022/03/21 04:53:17;;;;;;;;;64.33;46.00;;;;;9.94;62.22;102520.72;5052518;28;47822;-72
2022/03/21 04:55:43;;;;;;;;;56.25;42.50;;;;;9.96;62.36;102522.47;5050022;28;45616;-72
2022/03/21 04:58:09;;;;;;;;;59.25;43.75;;;;;9.97;62.31;102521.56;5046440;28;45537;-72
2022/03/21 05:00:36;;;;;;;;;60.00;46.00;;;;;9.98;61.96;102532.06;5047995;28;45665;-72
2022/03/21 05:03:05;;;;;;;;;59.75;45.75;;;;;9.97;62.33;102525.09;5041898;28;45557;-72
2022/03/21 05:05:30;;;;;;;;;64.75;49.75;;;;;9.97;62.29;102524.19;5047734;28;45736;-72
2022/03/21 05:07:56;;;;;;;;;62.75;45.75;;;;;9.98;62.47;102523.31;5044540;28;45608;-72
2022/03/21 05:10:22;;;;;;;;;59.75;46.75;;;;;9.99;62.91;102539.06;5046765;28;45461;-72
2022/03/21 05:12:48;;;;;;;;;54.00;45.00;;;;;9.98;62.76;102531.22;5053191;28;47730;-72
2022/03/21 05:15:13;;;;;;;;;57.50;43.50;;;;;9.98;62.68;102539.09;5048166;28;45407;-72
2022/03/21 05:17:39;;;;;;;;;55.25;43.25;;;;;9.98;62.96;102531.22;5046634;28;45955;-72
2022/03/21 05:20:17;;;;;;;;;64.00;48.00;;;;;9.97;62.72;102539.94;5041153;28;45872;-72
2022/03/21 05:30:56;;;;;;;;;57.75;42.00;;;;;9.96;62.92;102543.47;5052059;28;45486;-72
2022/03/21 05:30:58;;;;;;;;;63.25;48.00;;;;;9.86;63.28;102540.94;5040779;28;45234;-72
2022/03/21 05:36:08;;;;;;;;;66.00;43.75;;;;;9.79;63.50;102544.53;5040319;28;45522;-72
2022/03/21 05:38:34;;;;;;;;;59.00;42.75;;;;;9.75;63.14;102549.81;5038604;28;46329;-72
2022/03/21 05:41:01;;;;;;;;;58.25;42.00;;;;;9.69;63.63;102540.25;5046136;28;45879;-72
2022/03/21 05:43:33;;;;;;;;;57.75;44.00;;;;;9.62;63.70;102543.84;5048732;28;45414;-72
2022/03/21 05:46:00;;;;;;;;;56.75;44.75;;;;;9.56;63.85;102550.03;5048835;28;45518;-72
2022/03/21 05:51:32;;;;;;;;;53.50;44.50;;;;;9.45;64.35;102551.00;5011145;28;45813;-72
2022/03/21 05:54:00;;;;;;;;;60.00;43.50;;;;;9.39;63.89;102558.03;5010985;28;45352;-72
2022/03/21 05:56:27;;;;;;;;;58.50;44.50;;;;;9.35;64.09;102565.97;5014248;28;45476;-72
2022/03/21 05:58:54;;;;;;;;;54.75;43.75;;;;;9.35;64.29;102563.34;5011302;28;46080;-73
2022/03/21 06:01:23;;;;;;;;;61.50;44.25;;;;;9.33;64.74;102565.97;5010927;28;49258;-71
2022/03/21 06:03:53;;;;;;;;;63.75;48.50;;;;;9.33;64.90;102571.22;5011356;28;45577;-72
2022/03/21 06:06:20;;;;;;;;;61.50;44.00;;;;;9.30;64.72;102560.75;5010887;28;45624;-71
2022/03/21 06:08:45;;;;;;;;;60.75;44.50;;;;;9.33;64.79;102570.34;5013120;28;45992;-72
2022/03/21 06:11:12;;;;;;;;;59.00;43.50;;;;;9.37;64.46;102572.06;4997843;28;45527;-71
2022/03/21 06:13:40;;;;;;;;;57.25;43.00;;;;;9.38;64.50;102584.28;5010413;28;45457;-71
2022/03/21 06:16:06;;;;;;;;;64.00;49.75;;;;;9.38;64.80;102584.28;5010371;28;45630;-72
2022/03/21 06:18:33;;;;;;;;;59.00;44.00;;;;;9.40;65.03;102577.31;5010219;28;45652;-72
2022/03/21 06:21:04;;;;;;;;;56.25;43.50;;;;;9.41;64.96;102584.28;5008335;28;45378;-72
2022/03/21 06:23:29;;;;;;;;;58.25;44.75;;;;;9.43;64.83;102585.13;5014628;28;45814;-72
2022/03/21 06:25:56;;;;;;;;;59.00;43.75;;;;;9.46;64.73;102593.00;5013502;28;46781;-72
2022/03/21 06:28:22;;;;;;;;;64.00;49.75;;;;;9.51;64.95;102598.19;5047879;28;47123;-71
2022/03/21 06:30:53;;;;;;;;;62.00;47.00;;;;;9.56;64.93;102599.91;5048547;28;45667;-71
2022/03/21 06:33:21;;;;;;;;;56.50;45.50;;;;;9.64;64.85;102602.44;5043531;28;45320;-71
2022/03/21 06:35:48;;;;;;;;;63.50;47.75;;;;;9.71;64.85;102604.13;5042818;28;45745;-71
2022/03/21 06:38:14;;;;;;;;;66.50;45.75;;;;;9.79;64.93;102606.69;5040019;28;46310;-71
2022/03/21 06:40:40;;;;;;;;;58.75;45.00;;;;;9.87;64.73;102612.75;5048433;28;45546;-71
2022/03/21 06:43:06;;;;;;;;;60.50;45.25;;;;;9.95;64.90;102618.78;5051341;28;45911;-71
2022/03/21 06:45:32;;;;;;;;;61.25;40.25;;;;;10.06;64.82;102621.28;5053533;28;45530;-71
2022/03/21 06:47:57;;;;;;;;;62.00;47.25;;;;;10.14;65.08;102617.69;5051646;28;46349;-71
2022/03/21 06:50:22;;;;;;;;;67.00;49.00;;;;;10.23;64.86;102619.31;5046531;28;45479;-71
2022/03/21 06:52:49;;;;;;;;;63.50;49.25;;;;;10.33;64.82;102626.25;5051462;28;45819;-71
2022/03/21 06:55:14;;;;;;;;;67.00;48.25;;;;;10.47;64.90;102631.34;5052709;28;45399;-71
2022/03/21 06:57:40;;;;;;;;;63.25;47.00;;;;;10.62;65.11;102628.53;5050895;28;46185;-71
2022/03/21 07:00:07;;;;;;;;;63.75;49.25;;;;;10.77;64.91;102630.09;5043449;28;45839;-71
2022/03/21 07:02:33;;;;;;;;;62.50;47.75;;;;;10.89;64.73;102622.03;5054826;27;45494;-71
2022/03/21 07:04:59;;;;;;;;;65.50;51.25;;;;;11.01;64.20;102628.88;5047830;28;45552;-71
2022/03/21 07:07:25;;;;;;;;;69.25;51.75;;;;;11.09;63.71;102628.78;5047178;28;46022;-71
2022/03/21 07:09:50;;;;;;;;;69.00;49.25;;;;;11.18;63.76;102626.00;5051596;28;45811;-72
2022/03/21 07:12:16;;;;;;;;;81.25;61.00;;;;;11.29;63.75;102636.38;5049500;28;45391;-72
2022/03/21 07:14:41;;;;;;;;;67.00;53.50;;;;;11.40;63.47;102629.16;5048100;28;45377;-72
2022/03/21 07:17:06;;;;;;;;;83.00;61.33;;;;;11.52;63.50;102633.34;5048900;28;45437;-72
2022/03/21 07:19:32;;;;;;;;;74.67;57.00;;;;;11.69;64.13;102637.47;5052505;28;50221;-70
2022/03/21 07:21:57;;;;;;;;;61.00;49.00;;;;;11.93;63.92;102632.66;5053827;28;46432;-71
2022/03/21 07:24:23;;;;;;;;;62.75;44.50;;;;;12.24;63.02;102636.47;5046204;28;45934;-70
2022/03/21 07:26:48;;;;;;;;;44.75;31.75;;;;;12.62;62.50;102633.94;5049775;28;46111;-70
2022/03/21 07:29:13;;;;;;;;;55.75;43.75;;;;;12.97;61.89;102631.41;5052971;28;45498;-70
2022/03/21 07:31:38;;;;;;;;;59.50;44.50;;;;;13.29;60.76;102643.88;5054259;28;45470;-72
2022/03/21 07:34:04;;;;;;;;;58.25;42.75;;;;;13.82;60.79;102643.44;5052975;28;48085;-72
2022/03/21 07:36:31;;;;;;;;;55.50;42.25;;;;;14.60;59.74;102634.25;5053326;28;46311;-72
2022/03/21 07:38:57;;;;;;;;;49.00;37.75;;;;;15.48;58.17;102628.88;5052900;28;45555;-73
2022/03/21 07:41:26;;;;;;;;;51.00;37.75;;;;;16.41;56.00;102634.41;5055268;28;45313;-72
2022/03/21 07:43:51;;;;;;;;;44.75;37.50;;;;;16.83;54.88;102635.53;5046224;28;45399;-72
2022/03/21 07:49:00;;;;;;;;;49.50;37.25;;;;;17.20;52.79;102627.81;5048156;28;45519;-73
2022/03/21 07:51:25;;;;;;;;;48.50;38.50;;;;;17.18;52.41;102631.50;5053556;28;46672;-71
2022/03/21 07:53:51;;;;;;;;;47.00;37.67;;;;;17.37;52.46;102628.94;5040390;28;45510;-72
2022/03/21 07:56:16;;;;;;;;;53.75;40.00;;;;;17.64;51.54;102641.06;5048258;28;46073;-72
2022/03/21 07:58:41;;;;;;;;;48.50;39.25;;;;;18.04;50.99;102639.38;5044868;28;45395;-72
2022/03/21 08:01:09;;;;;;;;;43.50;35.25;;;;;18.42;50.41;102640.31;5047583;28;45494;-72
2022/03/21 08:03:34;;;;;;;;;46.00;39.00;;;;;19.02;49.52;102649.06;5051767;28;45464;-72
2022/03/21 08:06:00;;;;;;;;;40.75;35.00;;;;;20.06;48.41;102638.53;5052964;28;46274;-73
2022/03/21 08:08:26;;;;;;;;;46.00;33.75;;;;;20.70;46.76;102636.00;5053449;28;45543;-73
2022/03/21 08:10:52;;;;;;;;;38.25;33.00;;;;;20.83;46.33;102642.41;5045779;28;45502;-70
2022/03/21 08:13:19;;;;;;;;;42.75;32.50;;;;;21.56;45.87;102640.88;5043207;28;45481;-72
2022/03/21 08:15:45;;;;;;;;;43.00;36.00;;;;;22.17;44.63;102636.31;5047884;28;46500;-72
2022/03/21 08:18:12;;;;;;;;;41.25;34.00;;;;;22.31;43.72;102639.00;5048793;28;45563;-73
2022/03/21 08:20:39;;;;;;;;;40.00;31.50;;;;;22.32;43.29;102643.41;5043446;28;45432;-73
2022/03/21 08:23:08;;;;;;;;;35.75;28.75;;;;;22.58;42.73;102649.81;5049528;28;45482;-72
2022/03/21 08:25:37;;;;;;;;;36.25;32.00;;;;;22.59;42.47;102656.03;5047715;28;46955;-73
2022/03/21 08:28:07;;;;;;;;;33.25;29.50;;;;;23.51;42.22;102647.38;5048961;28;45400;-73
2022/03/21 08:30:35;;;;;;;;;32.25;30.75;;;;;24.37;40.46;102640.50;5045378;28;45503;-73
2022/03/21 08:33:02;;;;;;;;;36.75;31.25;;;;;24.86;39.50;102641.50;5043465;28;46850;-73
2022/03/21 08:35:28;;;;;;;;;36.25;29.00;;;;;25.24;38.27;102644.03;5049217;28;46277;-73
2022/03/21 08:37:54;;;;;;;;;30.25;28.50;;;;;26.48;38.53;102648.78;5053237;28;45784;-73
2022/03/21 08:40:19;;;;;;;;;35.00;30.25;;;;;28.50;37.15;102641.63;5054022;28;45673;-73
2022/03/21 08:42:45;;;;;;;;;34.25;28.00;;;;;29.74;34.78;102639.22;5053596;28;45449;-71
2022/03/21 08:45:12;;;;;;;;;31.00;29.25;;;;;30.38;33.63;102640.34;5053398;28;47093;-70
2022/03/21 08:47:38;;;;;;;;;39.50;30.25;;;;;31.68;33.62;102644.44;5051161;28;45388;-71
2022/03/21 08:50:05;;;;;;;;;31.75;29.50;;;;;33.14;31.70;102648.03;5054508;28;45443;-71
2022/03/21 08:52:30;;;;;;;;;30.50;25.75;;;;;34.23;30.65;102647.63;5053375;28;45643;-71
2022/03/21 08:54:56;;;;;;;;;32.75;29.00;;;;;34.91;29.29;102649.72;5049952;28;45830;-70
2022/03/21 08:57:22;;;;;;;;;23.00;18.75;;;;;35.52;28.32;102647.94;5047669;28;45600;-70
2022/03/21 08:59:47;;;;;;;;;29.25;26.00;;;;;36.22;27.16;102645.84;5044094;28;45675;-70
2022/03/21 09:02:13;;;;;;;;;30.75;25.25;;;;;37.01;26.60;102635.91;5054021;28;45458;-70
2022/03/21 09:04:39;;;;;;;;;25.00;24.50;;;;;38.06;25.82;102639.75;5052952;28;45565;-70
2022/03/21 09:07:05;;;;;;;;;26.50;26.50;;;;;38.90;24.57;102645.00;5052648;28;45587;-71
2022/03/21 09:09:31;;;;;;;;;24.75;22.75;;;;;39.32;24.28;102634.69;5053570;28;45568;-71
2022/03/21 09:11:57;;;;;;;;;30.50;26.00;;;;;39.82;22.94;102644.19;5037670;28;45985;-71
2022/03/21 09:14:22;;;;;;;;;25.75;23.00;;;;;40.32;23.06;102633.47;5041799;28;46228;-71
2022/03/21 09:16:50;;;;;;;;;25.50;21.25;;;;;40.90;22.36;102638.06;5045932;28;45534;-71
2022/03/21 09:19:16;;;;;;;;;28.75;22.50;;;;;41.01;21.28;102633.75;5046056;28;45336;-71
2022/03/21 09:21:41;;;;;;;;;25.50;23.25;;;;;41.10;20.48;102641.56;5055262;28;46958;-71
2022/03/21 09:24:07;;;;;;;;;25.00;23.75;;;;;41.29;21.44;102638.84;5042195;28;46377;-71
2022/03/21 09:26:32;;;;;;;;;22.50;22.25;;;;;41.65;20.22;102635.34;5041347;28;45383;-71
2022/03/21 09:29:02;;;;;;;;;24.75;19.25;;;;;42.04;19.83;102641.56;5045623;28;45473;-71
2022/03/21 09:31:28;;;;;;;;;24.00;20.00;;;;;42.53;19.84;102643.28;5047074;28;45423;-71
2022/03/21 09:33:54;;;;;;;;;26.00;22.50;;;;;42.53;19.17;102642.44;5045605;28;45977;-71
2022/03/21 09:36:20;;;;;;;;;23.00;20.50;;;;;42.68;19.69;102643.72;5043550;28;45412;-71
2022/03/21 09:38:45;;;;;;;;;30.00;25.50;;;;;43.14;17.98;102639.44;5041354;28;45298;-71
2022/03/21 09:41:13;;;;;;;;;25.00;22.00;;;;;43.18;18.64;102634.28;5056896;28;45320;-71
2022/03/21 09:43:39;;;;;;;;;25.75;21.75;;;;;43.52;18.26;102640.09;5047867;28;46083;-71
2022/03/21 09:46:07;;;;;;;;;24.75;23.00;;;;;43.86;17.80;102632.88;5048785;28;45466;-71
2022/03/21 09:48:33;;;;;;;;;22.50;20.50;;;;;43.82;17.71;102638.03;5056849;28;45593;-71
2022/03/21 09:51:03;;;;;;;;;23.75;22.25;;;;;43.75;17.67;102627.06;5040419;28;45484;-71
2022/03/21 09:53:29;;;;;;;;;20.50;19.25;;;;;43.58;17.78;102630.81;5054290;28;45359;-70
2022/03/21 09:55:55;;;;;;;;;69.50;57.50;;;;;42.73;17.50;102624.50;5050984;28;45435;-70
2022/03/21 09:58:22;;;;;;;;;20.75;20.75;;;;;41.61;17.88;102628.59;5050874;28;45431;-69
2022/03/21 10:00:49;;;;;;;;;21.25;20.50;;;;;40.67;18.67;102620.19;5051147;28;45510;-72
2022/03/21 10:03:15;;;;;;;;;23.25;20.25;;;;;39.96;19.15;102620.22;5055912;28;46869;-72
2022/03/21 10:05:43;;;;;;;;;26.00;20.50;;;;;39.39;19.30;102614.38;5056139;28;50184;-73
2022/03/21 10:08:18;;;;;;;;;23.25;20.25;;;;;38.84;19.47;102613.69;5045235;28;45503;-72
2022/03/21 10:11:02;;;;;;;;;23.00;19.50;;;;;38.23;19.79;102610.06;5044671;28;45358;-72
2022/03/21 10:13:36;;;;;;;;;16.25;15.50;;;;;37.82;20.13;102611.72;5048330;28;45596;-71
2022/03/21 10:16:08;;;;;;;;;28.50;23.75;;;;;37.32;19.85;102608.13;5048318;28;45785;-72
2022/03/21 10:18:34;;;;;;;;;20.50;19.25;;;;;36.69;20.56;102609.81;5053098;28;45510;-74
2022/03/21 10:21:11;;;;;;;;;20.50;19.50;;;;;36.44;20.58;102617.56;5039930;28;45492;-74
2022/03/21 10:23:36;;;;;;;;;87.00;73.75;;;;;35.98;21.40;102603.22;5050404;28;47514;-72
2022/03/21 10:26:26;;;;;;;;;22.50;20.25;;;;;35.90;20.77;102606.00;5056453;28;45447;-73
2022/03/21 10:28:54;;;;;;;;;19.50;16.50;;;;;35.57;21.34;102611.00;5044947;28;45412;-73
2022/03/21 10:31:44;;;;;;;;;19.50;14.50;;;;;35.25;21.55;102599.28;5055534;28;45579;-73
2022/03/21 10:34:17;;;;;;;;;19.00;16.00;;;;;34.74;21.95;102594.34;5054967;28;46203;-73
2022/03/21 10:36:58;;;;;;;;;16.50;15.25;;;;;34.44;22.61;102593.31;5055347;28;45478;-73
2022/03/21 10:39:24;;;;;;;;;19.50;17.50;;;;;34.31;21.95;102587.56;5055885;28;45343;-73
2022/03/21 10:41:55;;;;;;;;;17.50;16.25;;;;;33.98;22.38;102587.69;5056228;28;45376;-72
2022/03/21 10:44:20;;;;;;;;;20.25;16.75;;;;;33.38;22.86;102584.53;5055709;28;47131;-72
2022/03/21 10:46:51;;;;;;;;;17.50;14.50;;;;;32.75;23.34;102582.44;5055247;28;45461;-74
2022/03/21 10:49:27;;;;;;;;;16.50;15.75;;;;;32.36;23.59;102577.56;5053302;28;45529;-74
2022/03/21 10:51:54;;;;;;;;;16.25;16.25;;;;;31.90;24.09;102583.28;5055304;28;45378;-73
2022/03/21 10:54:37;;;;;;;;;14.00;12.00;;;;;31.57;24.48;102575.91;5055272;28;46308;-73
2022/03/21 10:57:04;;;;;;;;;15.50;14.00;;;;;31.39;24.31;102574.09;5055012;28;45616;-73
2022/03/21 10:59:31;;;;;;;;;14.75;14.50;;;;;31.20;24.36;102571.50;5049618;28;45279;-74
2022/03/21 11:02:19;;;;;;;;;14.00;13.75;;;;;30.88;24.71;102581.06;5045527;28;45337;-73
2022/03/21 11:04:45;;;;;;;;;13.25;11.75;;;;;30.61;24.83;102567.53;5053564;28;48380;-73
2022/03/21 11:07:12;;;;;;;;;9.00;7.50;;;;;30.35;25.43;102575.56;5054440;28;45494;-72
2022/03/21 11:09:39;;;;;;;;;11.75;10.25;;;;;30.13;25.56;102564.09;5055069;28;45495;-72
2022/03/21 11:12:07;;;;;;;;;13.75;13.25;;;;;29.98;25.41;102570.13;5052843;28;45530;-71
2022/03/21 11:14:36;;;;;;;;;12.50;11.00;;;;;29.68;25.45;102560.38;5052069;28;47229;-71
2022/03/21 11:17:03;;;;;;;;;11.25;11.25;;;;;29.42;25.93;102563.69;5043048;28;45791;-73
2022/03/21 11:19:29;;;;;;;;;11.00;9.25;;;;;29.02;26.11;102555.72;5044340;28;45628;-69
2022/03/21 11:21:54;;;;;;;;;11.25;10.00;;;;;28.59;26.94;102556.94;5043991;28;45380;-74
2022/03/21 11:24:20;;;;;;;;;16.00;11.50;;;;;28.36;27.01;102560.91;5042536;28;45297;-69
2022/03/21 11:27:08;;;;;;;;;15.00;13.00;;;;;28.19;26.98;102552.44;5055194;28;45378;-69
2022/03/21 11:29:52;;;;;;;;;14.25;11.75;;;;;28.00;26.94;102542.38;5045682;28;45499;-74
2022/03/21 11:32:29;;;;;;;;;12.25;11.00;;;;;27.62;27.25;102545.72;5053735;28;45417;-72